CheckWX is a tool to help pilots better visualize weather data.  It is not intended as a substitute for an official pre-flight weather briefing.

05:52:30 UTC

EFHK METAR
Helsinki Vantaa Airport
Helsinki, Finland
Current

33 mins ago

EFHK 240520Z 19009KT CAVOK 01/M00 Q1022 NOSIG
Observed
Feb-24 @ 05:20 UTC
Wind
  • 190° at 9 KTS
Visibility
10,000+ meters
Flight Rules
VFR
Cloud Levels
  • Clear skies
Temperature
C / 34°F
Dewpoint
C / 32°F
Humidity
93%
Altimeter
30.18" Hg
Pressure
1021.92 hPa
Previous

1 hour ago

EFHK 240450Z 21007KT CAVOK 00/M00 Q1022 NOSIG
Observed
Feb-24 @ 04:50 UTC
Wind
  • 210° at 7 KTS
Visibility
10,000+ meters
Flight Rules
VFR
Cloud Levels
  • Clear skies
Temperature
C / 32°F
Dewpoint
C / 32°F
Humidity
100%
Altimeter
30.18" Hg
Pressure
1021.92 hPa
Previous

2 hours ago

EFHK 240420Z 20006KT CAVOK 00/M01 Q1022 NOSIG
Observed
Feb-24 @ 04:20 UTC
Wind
  • 200° at 6 KTS
Visibility
10,000+ meters
Flight Rules
VFR
Cloud Levels
  • Clear skies
Temperature
C / 32°F
Dewpoint
-1°C / 30°F
Humidity
93%
Altimeter
30.18" Hg
Pressure
1021.92 hPa